Time;durP1;ratioP1;P1;durP2;ratioP2;P2;SDS_P1;SDS_P2;PMS_P1;PMS_P2;Temp;Humidity;BMP_temperature;BMP_pressure;BME280_temperature;BME280_humidity;BME280_pressure;Samples;Min_cycle;Max_cycle;Signal;HPM_P1;HPM_P2
2022/03/27 00:00:16;;;;;;;13.80;8.23;;;;;;;9.50;76.98;103148.59;5028212;28;20032;-73
2022/03/27 00:02:42;;;;;;;10.43;8.18;;;;;;;9.45;77.06;103156.13;5031593;28;20021;-73
2022/03/27 00:05:09;;;;;;;10.75;7.35;;;;;;;9.44;77.18;103159.50;5037626;28;20061;-73
2022/03/27 00:07:34;;;;;;;13.45;7.20;;;;;;;9.43;77.11;103151.59;5024598;28;20029;-73
2022/03/27 00:10:00;;;;;;;10.80;6.85;;;;;;;9.42;77.38;103153.31;5024172;28;20292;-73
2022/03/27 00:12:25;;;;;;;11.68;7.13;;;;;;;9.37;76.74;103155.63;5024173;28;20032;-73
2022/03/27 00:14:50;;;;;;;10.88;6.72;;;;;;;9.34;77.53;103158.03;5023717;28;20177;-73
2022/03/27 00:17:15;;;;;;;10.30;6.65;;;;;;;9.34;77.78;103157.09;5023938;28;20036;-73
2022/03/27 00:19:41;;;;;;;9.98;6.43;;;;;;;9.31;78.11;103150.03;5024109;28;20018;-73
2022/03/27 00:22:06;;;;;;;10.07;6.43;;;;;;;9.31;78.36;103151.69;5024256;28;20126;-73
2022/03/27 00:24:32;;;;;;;10.23;6.13;;;;;;;9.29;78.36;103158.53;5024033;28;20026;-73
2022/03/27 00:26:57;;;;;;;10.13;6.40;;;;;;;9.29;78.83;103156.81;5023831;28;20292;-73
2022/03/27 00:29:22;;;;;;;9.73;5.95;;;;;;;9.27;78.61;103155.81;5035180;28;20017;-73
2022/03/27 00:31:48;;;;;;;13.32;6.28;;;;;;;9.22;78.76;103159.78;5024959;28;20049;-73
2022/03/27 00:34:14;;;;;;;9.65;5.93;;;;;;;9.18;78.44;103156.09;5022833;28;20009;-73
2022/03/27 00:36:39;;;;;;;11.40;6.43;;;;;;;9.15;78.74;103153.31;5024006;28;20018;-80
2022/03/27 00:39:04;;;;;;;9.57;6.20;;;;;;;9.12;78.68;103141.78;5023902;28;20085;-80
2022/03/27 00:41:30;;;;;;;9.48;6.00;;;;;;;9.09;78.85;103150.28;5023795;28;20029;-80
2022/03/27 00:43:56;;;;;;;10.60;6.68;;;;;;;9.06;79.00;103150.06;5023714;28;20022;-80
2022/03/27 00:46:21;;;;;;;11.65;6.38;;;;;;;9.01;78.95;103148.88;5023805;28;20029;-80
2022/03/27 00:48:47;;;;;;;11.35;5.97;;;;;;;8.97;79.17;103146.88;5032451;28;20011;-80
2022/03/27 00:51:12;;;;;;;9.73;6.07;;;;;;;8.95;79.44;103143.25;5026182;28;20018;-80
2022/03/27 00:53:37;;;;;;;9.52;6.30;;;;;;;8.91;79.39;103149.94;5023673;28;20029;-79
2022/03/27 00:56:03;;;;;;;9.75;5.88;;;;;;;8.86;79.19;103146.13;5023627;28;20289;-80
2022/03/27 00:58:28;;;;;;;10.82;6.40;;;;;;;8.80;78.86;103141.41;5023832;28;20133;-80
2022/03/27 01:01:13;;;;;;;10.95;5.97;;;;;;;8.78;79.15;103147.31;5023629;28;20029;-80
2022/03/27 01:03:38;;;;;;;9.40;5.57;;;;;;;8.72;78.12;103149.47;5023809;28;20271;-80
2022/03/27 01:06:08;;;;;;;8.95;5.88;;;;;;;8.68;77.64;103145.78;5036738;28;20025;-80
2022/03/27 01:11:21;;;;;;;10.20;6.00;;;;;;;8.52;77.95;103136.94;5002634;28;20034;-80
2022/03/27 01:13:56;;;;;;;8.85;5.95;;;;;;;8.45;78.32;103137.31;5023466;28;20086;-79
2022/03/27 01:16:36;;;;;;;11.02;6.13;;;;;;;8.40;78.93;103138.66;5036075;28;20291;-80
2022/03/27 01:19:02;;;;;;;8.98;5.72;;;;;;;8.34;79.16;103133.94;5023009;28;20048;-80
2022/03/27 01:21:27;;;;;;;9.68;5.82;;;;;;;8.30;78.65;103141.41;5019818;28;20030;-80
2022/03/27 01:23:54;;;;;;;11.23;6.07;;;;;;;8.23;78.97;103139.19;5017936;28;20021;-80
2022/03/27 01:26:20;;;;;;;9.32;5.75;;;;;;;8.22;79.02;103134.78;5015234;28;20088;-80
2022/03/27 01:28:45;;;;;;;9.05;5.50;;;;;;;8.13;79.07;103128.13;5016066;28;20280;-80
2022/03/27 01:31:11;;;;;;;9.70;6.45;;;;;;;8.08;79.82;103136.38;5023106;28;20232;-80
2022/03/27 01:33:36;;;;;;;9.57;6.70;;;;;;;8.03;80.69;103125.69;5018314;28;20273;-80
2022/03/27 01:36:02;;;;;;;11.00;6.85;;;;;;;8.02;81.07;103134.25;5018534;28;20022;-80
2022/03/27 01:38:28;;;;;;;12.52;6.90;;;;;;;8.02;80.60;103134.25;5017731;28;20022;-80
2022/03/27 01:40:53;;;;;;;11.18;6.70;;;;;;;7.97;80.90;103138.22;5022897;28;20018;-80
2022/03/27 01:43:18;;;;;;;10.93;6.28;;;;;;;7.95;81.36;103130.34;5014663;28;20041;-80
2022/03/27 01:45:44;;;;;;;12.63;7.40;;;;;;;7.96;80.78;103134.72;5024054;28;20022;-80
2022/03/27 01:48:09;;;;;;;9.95;6.53;;;;;;;7.97;80.27;103135.63;5020435;28;20034;-80
2022/03/27 01:50:34;;;;;;;11.45;6.93;;;;;;;7.95;80.88;103134.59;5023813;28;20028;-80
2022/03/27 01:53:00;;;;;;;10.73;6.93;;;;;;;7.94;81.11;103140.63;5018151;28;20030;-80
2022/03/27 01:55:25;;;;;;;10.73;6.82;;;;;;;7.88;80.97;103135.88;5021745;28;20184;-80
2022/03/27 01:57:50;;;;;;;10.38;6.57;;;;;;;7.86;81.32;103141.75;5014598;28;20090;-80
2022/03/27 02:00:16;;;;;;;10.45;7.03;;;;;;;7.86;81.15;103142.63;5017552;28;20271;-80
2022/03/27 02:02:41;;;;;;;10.98;6.82;;;;;;;7.84;81.25;103139.94;5018386;28;20049;-80
2022/03/27 02:05:07;;;;;;;11.55;7.20;;;;;;;7.84;80.87;103137.34;5025044;28;20113;-80
2022/03/27 02:07:36;;;;;;;12.02;7.22;;;;;;;7.81;81.78;103134.53;5021212;28;20275;-80
2022/03/27 02:10:03;;;;;;;10.73;6.82;;;;;;;7.80;81.42;103140.50;5020311;28;20025;-80
2022/03/27 02:12:29;;;;;;;12.15;7.35;;;;;;;7.80;81.99;103140.50;5016257;28;20013;-80
2022/03/27 02:14:56;;;;;;;12.77;7.95;;;;;;;7.80;81.91;103137.91;5019095;28;20049;-80
2022/03/27 02:17:21;;;;;;;11.75;7.53;;;;;;;7.76;82.34;103141.09;5019077;28;20228;-79
2022/03/27 02:19:46;;;;;;;10.73;7.30;;;;;;;7.73;82.03;103138.25;5024469;28;20052;-80
2022/03/27 02:22:12;;;;;;;12.60;7.75;;;;;;;7.71;82.43;103133.78;5024383;28;20014;-80
2022/03/27 02:24:37;;;;;;;11.75;7.70;;;;;;;7.70;82.26;103132.84;5023244;28;20022;-79
2022/03/27 02:27:03;;;;;;;12.65;7.38;;;;;;;7.66;82.14;103138.59;5017627;28;20021;-80
2022/03/27 02:29:29;;;;;;;13.00;7.93;;;;;;;7.66;82.58;103138.59;5024004;28;20018;-80
2022/03/27 02:31:55;;;;;;;13.82;8.25;;;;;;;7.65;83.45;103139.41;5022636;28;20041;-80
2022/03/27 02:34:20;;;;;;;13.93;9.10;;;;;;;7.66;83.36;103141.19;5020696;28;20106;-80
2022/03/27 02:36:45;;;;;;;15.38;9.43;;;;;;;7.68;83.83;103136.16;5026673;28;20022;-80
2022/03/27 02:39:11;;;;;;;16.95;10.13;;;;;;;7.70;84.57;103131.97;5021793;28;20018;-80
2022/03/27 02:41:36;;;;;;;19.27;10.93;;;;;;;7.73;85.34;103133.06;5012697;28;20017;-80
2022/03/27 02:44:01;;;;;;;18.02;11.15;;;;;;;7.80;86.01;103131.81;5019516;28;20014;-80
2022/03/27 02:46:27;;;;;;;17.98;11.13;;;;;;;7.87;86.12;103130.59;5016525;28;20280;-80
2022/03/27 02:48:52;;;;;;;19.38;12.30;;;;;;;7.90;86.25;103130.78;5021682;28;20013;-80
2022/03/27 02:51:17;;;;;;;19.38;12.27;;;;;;;7.96;86.73;103128.63;5016322;28;20014;-80
2022/03/27 02:53:43;;;;;;;21.23;12.43;;;;;;;8.04;86.77;103129.16;5024578;28;20041;-80
2022/03/27 02:56:09;;;;;;;22.98;13.45;;;;;;;8.08;86.94;103129.50;5018340;28;20284;-80
2022/03/27 02:58:35;;;;;;;21.63;12.90;;;;;;;8.12;86.73;103135.81;5019632;28;20021;-80
2022/03/27 03:01:01;;;;;;;23.88;14.07;;;;;;;8.15;86.66;103131.75;5021009;28;20195;-80
2022/03/27 03:03:26;;;;;;;19.65;12.38;;;;;;;8.21;86.95;103127.75;5019269;28;20014;-80
2022/03/27 03:05:52;;;;;;;22.90;13.02;;;;;;;8.24;86.96;103130.56;5016983;28;20044;-80
2022/03/27 03:08:18;;;;;;;22.65;13.32;;;;;;;8.24;86.93;103123.69;5018568;28;20326;-73
2022/03/27 03:10:44;;;;;;;20.08;12.57;;;;;;;8.28;86.84;103119.59;5015237;28;20021;-73
2022/03/27 03:13:10;;;;;;;19.33;12.60;;;;;;;8.30;86.68;103120.63;5014661;28;20046;-73
2022/03/27 03:15:42;;;;;;;18.52;12.13;;;;;;;8.30;86.26;103120.63;5022874;28;20048;-73
2022/03/27 03:18:11;;;;;;;18.55;12.63;;;;;;;8.32;86.09;103124.22;5023794;28;20041;-73
2022/03/27 03:20:38;;;;;;;19.58;12.70;;;;;;;8.33;86.10;103118.25;5024656;28;20020;-73
2022/03/27 03:23:03;;;;;;;19.77;12.55;;;;;;;8.33;85.90;103118.25;5026216;28;20002;-73
2022/03/27 03:25:29;;;;;;;18.38;12.45;;;;;;;8.34;86.03;103115.75;5010460;28;20275;-73
2022/03/27 03:27:55;;;;;;;21.08;12.48;;;;;;;8.34;86.13;103107.97;5022407;28;20013;-73
2022/03/27 03:30:20;;;;;;;22.67;13.20;;;;;;;8.35;86.19;103108.84;5021707;28;20030;-73
2022/03/27 03:32:46;;;;;;;20.63;13.27;;;;;;;8.34;86.29;103104.44;5021171;28;20014;-73
2022/03/27 03:35:11;;;;;;;23.88;13.27;;;;;;;8.34;86.29;103112.22;5016888;28;20026;-73
2022/03/27 03:37:37;;;;;;;20.38;13.32;;;;;;;8.35;86.28;103111.44;5019561;28;20033;-73
2022/03/27 03:40:06;;;;;;;19.95;12.38;;;;;;;8.33;86.84;103100.94;5020567;28;20281;-73
2022/03/27 03:42:35;;;;;;;23.40;14.30;;;;;;;8.35;86.57;103106.25;5020054;28;20316;-73
2022/03/27 03:45:00;;;;;;;22.57;13.67;;;;;;;8.36;86.58;103115.84;5019926;28;20038;-73
2022/03/27 03:47:25;;;;;;;22.08;12.82;;;;;;;8.39;86.46;103110.88;5013529;28;20327;-73
2022/03/27 03:49:51;;;;;;;22.15;13.05;;;;;;;8.36;86.60;103106.34;5022201;28;20045;-73
2022/03/27 03:52:16;;;;;;;20.58;12.95;;;;;;;8.38;86.46;103105.56;5023163;28;20083;-73
2022/03/27 03:54:42;;;;;;;20.55;12.88;;;;;;;8.39;86.55;103104.78;5018610;28;20272;-73
2022/03/27 03:57:07;;;;;;;19.92;12.00;;;;;;;8.39;86.51;103108.28;5016481;28;20038;-73
2022/03/27 03:59:33;;;;;;;22.48;12.07;;;;;;;8.38;86.53;103106.47;5020848;28;20041;-73
2022/03/27 04:01:59;;;;;;;18.25;11.82;;;;;;;8.39;86.30;103112.56;5019932;28;20014;-73
2022/03/27 04:04:24;;;;;;;19.75;12.35;;;;;;;8.36;86.84;103114.16;5015996;28;20030;-73
2022/03/27 04:06:50;;;;;;;20.88;12.98;;;;;;;8.35;86.94;103114.03;5013857;28;20069;-73
2022/03/27 04:09:15;;;;;;;21.60;12.82;;;;;;;8.35;86.87;103109.75;5016602;28;20276;-73
2022/03/27 04:11:40;;;;;;;21.45;12.90;;;;;;;8.36;87.12;103110.66;5017787;28;20056;-73
2022/03/27 04:14:06;;;;;;;21.80;12.95;;;;;;;8.37;86.77;103117.63;5017932;28;20013;-73
2022/03/27 04:16:31;;;;;;;21.90;13.02;;;;;;;8.39;86.60;103116.06;5019386;28;20037;-73
2022/03/27 04:18:56;;;;;;;20.02;12.60;;;;;;;8.40;86.58;103110.09;5021051;28;20037;-73
2022/03/27 04:21:22;;;;;;;22.25;12.93;;;;;;;8.40;86.60;103111.75;5021391;28;20025;-73
2022/03/27 04:23:47;;;;;;;21.40;13.13;;;;;;;8.39;86.81;103116.06;5019113;28;20017;-73
2022/03/27 04:26:13;;;;;;;23.80;13.80;;;;;;;8.39;86.87;103110.88;5018589;28;20060;-73
2022/03/27 04:28:38;;;;;;;22.48;12.95;;;;;;;8.37;86.89;103117.63;5014636;28;20018;-73
2022/03/27 04:31:04;;;;;;;23.25;13.30;;;;;;;8.37;87.24;103107.25;5015337;28;20303;-73
2022/03/27 04:33:29;;;;;;;23.10;13.93;;;;;;;8.38;86.87;103115.97;5022712;28;20025;-73
2022/03/27 04:35:54;;;;;;;23.67;14.05;;;;;;;8.40;87.03;103112.69;5021260;28;20145;-73
2022/03/27 04:38:20;;;;;;;24.00;14.05;;;;;;;8.39;86.85;103115.19;5018934;28;20033;-73
2022/03/27 04:40:45;;;;;;;24.73;14.70;;;;;;;8.38;87.00;103109.06;5020780;28;20029;-73
2022/03/27 04:43:11;;;;;;;24.80;14.52;;;;;;;8.39;86.79;103115.19;5014037;28;20029;-73
2022/03/27 04:45:36;;;;;;;24.25;13.65;;;;;;;8.36;86.97;103111.56;5017274;28;20022;-74
2022/03/27 04:48:01;;;;;;;25.25;14.23;;;;;;;8.34;87.02;103110.56;5022434;28;20022;-74
2022/03/27 04:50:27;;;;;;;26.33;14.32;;;;;;;8.33;86.94;103113.06;5014922;28;20089;-74
2022/03/27 04:52:52;;;;;;;26.48;14.82;;;;;;;8.30;87.28;103111.13;5022789;28;20092;-74
2022/03/27 04:55:17;;;;;;;26.45;14.63;;;;;;;8.28;87.08;103106.63;5021007;28;20026;-73
2022/03/27 04:57:43;;;;;;;27.85;15.15;;;;;;;8.26;87.32;103116.00;5015473;28;20014;-73
2022/03/27 05:00:10;;;;;;;25.23;14.98;;;;;;;8.23;87.35;103110.59;5016630;28;20110;-73
2022/03/27 05:02:40;;;;;;;29.08;15.23;;;;;;;8.24;87.55;103110.72;5020686;28;20029;-73
2022/03/27 05:05:06;;;;;;;;;;;;;;;8.33;84.75;103120.84;5021781;28;20013;-73
2022/03/27 05:07:32;;;;;;;25.80;14.25;;;;;;;8.28;86.89;103122.22;5022149;28;19967;-73
2022/03/27 05:09:57;;;;;;;29.15;15.75;;;;;;;8.27;87.38;103125.59;5020428;28;20142;-73
2022/03/27 05:12:22;;;;;;;28.73;15.48;;;;;;;8.27;87.44;103126.50;5022733;28;20955;-73
2022/03/27 05:14:48;;;;;;;28.95;15.55;;;;;;;8.25;87.65;103122.88;5025956;28;20037;-73
2022/03/27 05:17:13;;;;;;;30.80;16.30;;;;;;;8.26;87.79;103134.19;5022956;28;20101;-74
2022/03/27 05:19:38;;;;;;;31.77;17.63;;;;;;;8.26;87.56;103126.41;5013104;28;20038;-74
2022/03/27 05:22:04;;;;;;;31.77;16.70;;;;;;;8.24;87.63;103136.69;5022124;28;20033;-73
2022/03/27 05:24:29;;;;;;;31.95;16.33;;;;;;;8.19;87.47;103133.75;5025754;28;20034;-74
2022/03/27 05:26:55;;;;;;;32.00;16.17;;;;;;;8.18;87.77;103137.16;5026595;28;20068;-73
2022/03/27 05:29:21;;;;;;;28.40;16.00;;;;;;;8.17;87.56;103135.34;5021565;28;20021;-73
2022/03/27 05:31:46;;;;;;;30.48;15.25;;;;;;;8.17;87.65;103132.75;5018064;28;20246;-74
2022/03/27 05:34:11;;;;;;;32.00;16.00;;;;;;;8.14;87.56;103140.31;5017079;28;20073;-73
2022/03/27 05:36:37;;;;;;;28.60;15.13;;;;;;;8.14;87.45;103135.13;5015784;28;20049;-73
2022/03/27 05:39:03;;;;;;;31.65;15.77;;;;;;;8.12;87.46;103141.00;5019054;28;20010;-73
2022/03/27 05:41:28;;;;;;;31.15;15.88;;;;;;;8.10;87.70;103151.28;5021554;28;20025;-73
2022/03/27 05:43:53;;;;;;;33.20;15.23;;;;;;;8.10;87.61;103146.09;5024663;28;20010;-73
2022/03/27 05:46:19;;;;;;;27.60;14.55;;;;;;;8.11;87.36;103147.91;5018856;28;20022;-73
2022/03/27 05:48:44;;;;;;;31.33;15.07;;;;;;;8.05;87.32;103147.44;5025054;28;20061;-73
2022/03/27 05:51:10;;;;;;;29.27;14.32;;;;;;;8.05;87.29;103152.63;5019752;28;20315;-73
2022/03/27 05:53:35;;;;;;;28.27;13.90;;;;;;;8.05;86.55;103149.16;5021464;28;20034;-73
2022/03/27 05:56:01;;;;;;;27.88;13.55;;;;;;;8.07;87.43;103152.78;5015979;28;20104;-73
2022/03/27 05:58:27;;;;;;;27.33;13.38;;;;;;;8.03;86.96;103155.94;5023934;28;20224;-73
2022/03/27 06:00:53;;;;;;;25.92;12.65;;;;;;;8.02;87.20;103155.00;5021019;28;20312;-73
2022/03/27 06:03:18;;;;;;;27.95;13.60;;;;;;;8.04;86.92;103157.72;5021464;28;20026;-73
2022/03/27 06:05:44;;;;;;;26.38;12.93;;;;;;;8.06;86.74;103158.75;5017022;28;20086;-73
2022/03/27 06:08:09;;;;;;;26.05;11.88;;;;;;;8.07;86.49;103157.97;5021601;28;20260;-73
2022/03/27 06:10:35;;;;;;;25.83;12.38;;;;;;;8.07;86.72;103168.34;5024010;28;20277;-73
2022/03/27 06:13:03;;;;;;;28.70;12.57;;;;;;;8.04;86.44;103170.69;5012918;28;20021;-73
2022/03/27 06:15:29;;;;;;;27.40;12.57;;;;;;;7.98;86.60;103171.16;5024166;28;20031;-73
2022/03/27 06:17:56;;;;;;;28.98;12.73;;;;;;;7.97;86.94;103172.88;5018397;28;20206;-73
2022/03/27 06:20:24;;;;;;;30.88;13.13;;;;;;;7.96;87.45;103170.16;5022922;28;20021;-73
2022/03/27 06:22:49;;;;;;;31.08;13.23;;;;;;;7.99;86.93;103172.97;5016933;28;20235;-73
2022/03/27 06:25:24;;;;;;;31.38;14.02;;;;;;;7.98;87.08;103171.16;5024197;28;20021;-73
2022/03/27 06:27:49;;;;;;;30.70;14.38;;;;;;;8.00;86.95;103174.78;5025824;28;20046;-73
2022/03/27 06:30:17;;;;;;;28.17;13.00;;;;;;;7.98;87.39;103173.75;5025964;28;20068;-73
2022/03/27 06:32:43;;;;;;;27.42;12.38;;;;;;;7.95;87.47;103176.13;5010888;28;20037;-73
2022/03/27 06:35:11;;;;;;;29.48;12.80;;;;;;;7.93;86.96;103175.13;5022726;28;20030;-73
2022/03/27 06:37:37;;;;;;;33.63;13.63;;;;;;;7.90;87.61;103181.00;5023523;28;20060;-73
2022/03/27 06:40:04;;;;;;;32.17;14.80;;;;;;;7.90;87.33;103182.72;5023745;28;20075;-73
2022/03/27 06:42:30;;;;;;;34.30;15.10;;;;;;;7.88;87.70;103181.69;5019001;28;20018;-73
2022/03/27 06:44:56;;;;;;;31.85;14.27;;;;;;;7.90;87.75;103183.59;5020162;28;20048;-73
2022/03/27 06:47:24;;;;;;;35.33;15.60;;;;;;;7.89;88.46;103188.69;5014635;28;20030;-80
2022/03/27 06:49:50;;;;;;;35.53;15.13;;;;;;;7.93;87.91;103177.75;5015384;28;20030;-80
2022/03/27 06:52:17;;;;;;;33.50;14.80;;;;;;;7.93;87.78;103178.63;5020079;28;20025;-80
2022/03/27 06:54:44;;;;;;;31.77;14.13;;;;;;;7.97;87.76;103185.84;5017298;28;20026;-79
2022/03/27 06:57:10;;;;;;;36.00;15.32;;;;;;;7.98;87.77;103182.47;5019244;28;20037;-79
2022/03/27 07:05:04;;;;;;;37.00;15.15;;;;;;;8.01;87.63;103176.59;5022702;28;20171;-80
2022/03/27 07:07:30;;;;;;;35.00;15.13;;;;;;;8.00;87.88;103188.66;5017756;28;20085;-80
2022/03/27 07:09:55;;;;;;;38.45;15.60;;;;;;;7.99;87.75;103189.47;5022943;28;20026;-79
2022/03/27 07:12:21;;;;;;;36.35;15.38;;;;;;;8.00;88.03;103185.19;5021577;28;20072;-79
2022/03/27 07:14:46;;;;;;;39.83;16.48;;;;;;;7.99;88.34;103185.97;5023532;28;20026;-80
2022/03/27 07:17:17;;;;;;;37.95;16.30;;;;;;;7.98;88.03;103178.94;5016032;28;20034;-79
2022/03/27 07:19:43;;;;;;;38.45;16.73;;;;;;;8.00;87.87;103185.19;5014385;28;20450;-80
2022/03/27 07:22:08;;;;;;;39.97;17.00;;;;;;;8.04;87.61;103188.88;5022195;28;20037;-80
2022/03/27 07:24:33;;;;;;;41.72;17.52;;;;;;;8.02;87.58;103178.38;5018559;28;20037;-79
2022/03/27 07:26:59;;;;;;;39.42;16.17;;;;;;;8.04;87.35;103182.00;5016746;28;20295;-80
2022/03/27 07:29:24;;;;;;;43.35;17.98;;;;;;;8.02;88.12;103175.78;5020750;28;20022;-80
2022/03/27 07:31:49;;;;;;;38.00;15.82;;;;;;;8.04;87.82;103174.22;5014955;28;20030;-80
2022/03/27 07:34:16;;;;;;;37.85;15.73;;;;;;;8.03;88.05;103187.09;5018884;28;20026;-80
2022/03/27 07:36:42;;;;;;;42.08;16.38;;;;;;;8.00;87.57;103180.88;5021351;28;20272;-80
2022/03/27 07:39:09;;;;;;;36.65;16.23;;;;;;;7.98;88.10;103181.53;5021677;28;20024;-80
2022/03/27 07:41:34;;;;;;;39.20;15.30;;;;;;;7.98;87.55;103191.94;5016091;28;20065;-80
2022/03/27 07:43:59;;;;;;;40.40;17.23;;;;;;;7.93;88.00;103180.34;5016343;28;20017;-80
2022/03/27 07:46:25;;;;;;;38.95;16.65;;;;;;;7.94;88.15;103189.94;5022926;28;20037;-80
2022/03/27 07:48:50;;;;;;;39.83;17.00;;;;;;;7.92;87.95;103186.31;5026846;28;20509;-79
2022/03/27 07:51:16;;;;;;;44.67;18.20;;;;;;;7.90;87.91;103178.41;5021213;28;20026;-80
2022/03/27 07:53:42;;;;;;;40.65;16.58;;;;;;;7.85;88.08;103187.56;5015977;28;20040;-79
2022/03/27 07:56:07;;;;;;;39.08;15.88;;;;;;;7.84;87.90;103186.66;5014974;28;20192;-80
2022/03/27 07:58:32;;;;;;;34.65;15.18;;;;;;;7.82;87.77;103188.25;5016628;28;20048;-80
2022/03/27 08:00:58;;;;;;;36.25;16.23;;;;;;;7.81;88.06;103188.13;5018926;28;21326;-80
2022/03/27 08:03:23;;;;;;;34.40;15.13;;;;;;;7.82;87.54;103184.72;5018694;28;20291;-80
2022/03/27 08:05:48;;;;;;;36.95;16.65;;;;;;;7.81;88.13;103183.84;5021018;28;20018;-79
2022/03/27 08:08:13;;;;;;;35.53;15.43;;;;;;;7.87;88.05;103182.50;5021763;28;20140;-79
2022/03/27 08:10:39;;;;;;;37.05;16.55;;;;;;;7.91;87.81;103185.41;5020456;28;20018;-80
2022/03/27 08:13:04;;;;;;;37.92;16.38;;;;;;;7.92;87.81;103183.72;5022448;28;20033;-79
2022/03/27 08:15:29;;;;;;;39.60;16.90;;;;;;;7.97;87.81;103179.75;5012466;28;20097;-80
2022/03/27 08:17:55;;;;;;;37.70;16.70;;;;;;;8.00;87.78;103174.78;5023256;28;20029;-80
2022/03/27 08:20:21;;;;;;;37.08;16.42;;;;;;;8.04;87.28;103178.50;5018431;28;20029;-80
2022/03/27 08:22:47;;;;;;;36.30;15.70;;;;;;;8.04;87.60;103184.59;5022196;28;20077;-80
2022/03/27 08:26:55;;;;;;;40.95;17.35;;;;;;;8.07;87.47;103179.63;5017649;28;20034;-80
2022/03/27 08:27:58;;;;;;;40.72;16.92;;;;;;;8.08;86.87;103186.63;5017925;28;20021;-77
2022/03/27 08:30:23;;;;;;;37.92;17.10;;;;;;;8.07;86.72;103186.53;5022435;28;20037;-77
2022/03/27 08:32:49;;;;;;;41.33;17.67;;;;;;;8.02;87.86;103186.19;5021958;28;20028;-77
2022/03/27 08:35:15;;;;;;;39.42;17.92;;;;;;;8.05;87.86;103195.88;5023792;28;20334;-77
2022/03/27 08:37:40;;;;;;;39.35;16.67;;;;;;;8.08;87.29;103190.91;5023079;28;20032;-77
2022/03/27 08:40:06;;;;;;;36.75;16.30;;;;;;;8.09;87.29;103192.72;5023989;28;20014;-77
2022/03/27 08:42:31;;;;;;;44.80;17.65;;;;;;;8.07;87.12;103192.63;5022434;28;20283;-77
2022/03/27 08:44:57;;;;;;;37.25;17.20;;;;;;;8.07;86.82;103189.13;5023672;28;20312;-77
2022/03/27 08:47:25;;;;;;;34.28;15.38;;;;;;;8.04;86.79;103192.41;5023956;28;20053;-77
2022/03/27 08:49:59;;;;;;;33.58;15.65;;;;;;;8.04;86.70;103194.06;5023995;28;20097;-77
2022/03/27 08:52:52;;;;;;;32.92;14.88;;;;;;;8.09;86.45;103192.72;5023632;28;20026;-77
2022/03/27 08:55:20;;;;;;;29.65;13.85;;;;;;;8.10;86.13;103195.44;5023919;28;20028;-77
2022/03/27 08:57:51;;;;;;;23.80;12.05;;;;;;;8.10;85.72;103192.81;5022529;28;20304;-77
2022/03/27 09:00:21;;;;;;;23.65;11.73;;;;;;;8.14;85.84;103192.25;5021829;28;20029;-77
2022/03/27 09:02:47;;;;;;;;;;;;;;;8.23;84.32;103191.13;5023982;28;20280;-77
2022/03/27 09:05:12;;;;;;;27.02;12.57;;;;;;;8.17;85.02;103195.06;5023811;28;19908;-78
2022/03/27 09:07:37;;;;;;;27.15;12.52;;;;;;;8.17;84.83;103196.78;5027545;28;20025;-71
2022/03/27 09:10:08;;;;;;;26.48;11.40;;;;;;;8.16;84.52;103211.44;5023939;28;20026;-71
2022/03/27 09:12:34;;;;;;;26.90;12.57;;;;;;;8.12;84.78;103208.53;5023309;28;20014;-71
2022/03/27 09:15:00;;;;;;;27.02;12.30;;;;;;;8.12;84.97;103204.22;5023645;28;20029;-71
2022/03/27 09:17:25;;;;;;;25.55;11.75;;;;;;;8.15;85.11;103212.25;5023103;28;20277;-71
2022/03/27 09:19:52;;;;;;;25.35;11.88;;;;;;;8.15;84.32;103201.88;5023468;28;20029;-71
2022/03/27 09:22:19;;;;;;;25.60;12.70;;;;;;;8.17;84.84;103212.34;5022394;28;20026;-71
2022/03/27 09:25:02;;;;;;;26.73;12.30;;;;;;;8.17;84.86;103218.44;5023307;28;20061;-71
2022/03/27 09:27:30;;;;;;;27.38;12.65;;;;;;;8.10;84.43;103210.13;5023493;28;20026;-71
2022/03/27 09:29:59;;;;;;;29.08;12.52;;;;;;;8.09;84.74;103216.09;5023544;28;20060;-71
2022/03/27 09:32:32;;;;;;;28.30;13.40;;;;;;;8.11;85.33;103212.81;5021713;28;20056;-71
2022/03/27 09:35:17;;;;;;;28.15;12.95;;;;;;;8.14;85.02;103213.03;5023411;28;20080;-71
2022/03/27 09:37:46;;;;;;;32.75;14.13;;;;;;;8.17;85.62;103212.34;5023423;28;20048;-71
2022/03/27 09:40:13;;;;;;;34.97;14.60;;;;;;;8.18;85.10;103209.88;5023490;28;20068;-71
2022/03/27 09:42:40;;;;;;;27.95;14.25;;;;;;;8.16;85.36;103211.44;5023321;28;20006;-71
2022/03/27 09:45:21;;;;;;;29.73;13.77;;;;;;;8.21;85.46;103197.88;5022073;28;20009;-71
2022/03/27 09:47:51;;;;;;;28.73;14.25;;;;;;;8.24;84.97;103198.09;5023497;28;20018;-71
2022/03/27 09:50:37;;;;;;;31.25;14.27;;;;;;;8.33;84.85;103189.28;5026988;28;20261;-71
2022/03/27 09:53:20;;;;;;;34.45;15.35;;;;;;;8.35;84.48;103190.28;5026372;28;20049;-70
2022/03/27 09:55:50;;;;;;;32.08;14.95;;;;;;;8.34;83.81;103177.19;5026874;28;20029;-71
2022/03/27 09:58:16;;;;;;;32.75;14.93;;;;;;;8.40;84.50;103179.31;5025335;28;20022;-71
2022/03/27 10:00:42;;;;;;;30.95;15.18;;;;;;;8.50;85.51;103181.78;5026706;28;20176;-71
2022/03/27 10:03:09;;;;;;;31.40;14.52;;;;;;;8.60;85.46;103168.63;5026730;28;20014;-70
2022/03/27 10:05:35;;;;;;;31.90;15.25;;;;;;;8.66;83.80;103168.16;5029934;28;20355;-70
2022/03/27 10:08:01;;;;;;;28.58;14.18;;;;;;;8.69;83.40;103163.19;5028976;28;20087;-77
2022/03/27 10:10:27;;;;;;;31.65;15.60;;;;;;;8.74;83.30;103159.19;5026204;28;20105;-76
2022/03/27 10:12:55;;;;;;;34.03;16.00;;;;;;;8.87;84.31;103160.94;5026399;28;20026;-76
2022/03/27 10:15:22;;;;;;;34.35;16.73;;;;;;;8.99;83.47;103158.25;5026235;28;20026;-77
2022/03/27 10:18:00;;;;;;;28.80;14.70;;;;;;;9.06;81.59;103155.28;5025046;28;20076;-76
2022/03/27 10:20:33;;;;;;;31.67;15.73;;;;;;;9.13;81.48;103154.88;5026003;28;20026;-77
2022/03/27 10:23:15;;;;;;;30.88;16.45;;;;;;;9.31;82.96;103154.31;5026259;28;20018;-77
2022/03/27 10:25:44;;;;;;;32.20;15.05;;;;;;;9.38;80.70;103148.69;5026573;28;20042;-76
2022/03/27 10:28:10;;;;;;;31.67;15.73;;;;;;;9.46;80.46;103151.78;5025155;28;20021;-77
2022/03/27 10:30:36;;;;;;;29.55;15.35;;;;;;;9.50;80.18;103143.41;5026032;28;20026;-76
2022/03/27 10:33:02;;;;;;;31.10;15.23;;;;;;;9.55;79.92;103147.22;5026027;28;20287;-77
2022/03/27 10:35:37;;;;;;;29.73;15.27;;;;;;;9.68;80.03;103138.50;5026314;28;20076;-77
2022/03/27 10:38:11;;;;;;;31.98;15.90;;;;;;;9.85;79.62;103137.88;5026001;28;20311;-77
2022/03/27 10:40:49;;;;;;;30.02;14.48;;;;;;;10.04;78.32;103133.81;5025865;28;20038;-77
2022/03/27 10:43:33;;;;;;;29.65;14.52;;;;;;;10.22;77.95;103128.84;5025793;28;20264;-77
2022/03/27 10:46:21;;;;;;;28.52;14.43;;;;;;;10.39;77.54;103127.31;5026316;28;20018;-77
2022/03/27 10:48:48;;;;;;;28.42;13.93;;;;;;;10.56;77.28;103126.63;5025911;28;20211;-77
2022/03/27 10:51:25;;;;;;;32.80;15.55;;;;;;;10.76;76.03;103125.22;5025487;28;20029;-77
2022/03/27 10:54:12;;;;;;;29.88;15.23;;;;;;;10.97;76.70;103122.09;5025355;28;20303;-77
2022/03/27 10:56:54;;;;;;;28.40;14.63;;;;;;;11.15;76.30;103122.25;5019190;28;20040;-77
2022/03/27 10:59:25;;;;;;;28.15;14.10;;;;;;;11.24;73.60;103124.50;5023395;28;20029;-77
2022/03/27 11:02:00;;;;;;;27.92;14.63;;;;;;;11.35;73.65;103118.19;5025165;28;20029;-77
2022/03/27 11:04:34;;;;;;;28.70;14.57;;;;;;;11.46;74.16;103122.31;5025418;28;20026;-77
2022/03/27 11:07:15;;;;;;;28.90;15.30;;;;;;;11.52;73.39;103113.91;5031889;28;20032;-77
2022/03/27 11:09:40;;;;;;;28.67;14.65;;;;;;;11.59;72.40;103108.22;5030430;28;20024;-77
2022/03/27 11:12:07;;;;;;;24.20;13.43;;;;;;;11.65;70.38;103105.06;5032840;28;20104;-77
2022/03/27 11:14:51;;;;;;;24.73;12.70;;;;;;;11.80;72.10;103099.78;5028360;28;20032;-77
2022/03/27 11:17:30;;;;;;;26.80;13.57;;;;;;;11.96;71.69;103099.84;5025675;28;20192;-78
2022/03/27 11:19:56;;;;;;;23.25;12.65;;;;;;;12.09;69.18;103090.06;5025328;28;20030;-76
2022/03/27 11:22:40;;;;;;;24.75;13.88;;;;;;;12.23;70.83;103094.31;5023701;28;20033;-77
2022/03/27 11:25:37;;;;;;;27.05;13.48;;;;;;;12.35;69.26;103088.81;5023786;28;20022;-77
2022/03/27 11:28:07;;;;;;;24.08;12.48;;;;;;;12.47;70.32;103079.00;5025070;28;20021;-75